createdAt,value
2018-12-11T00:00:27.312Z,99652.41
2018-12-11T00:01:03.191Z,99651.33
2018-12-11T00:01:38.863Z,99646.17
2018-12-11T00:02:14.719Z,99643.45
2018-12-11T00:02:50.689Z,99642.10
2018-12-11T00:03:26.507Z,99645.08
2018-12-11T00:04:02.312Z,99646.17
2018-12-11T00:04:38.570Z,99651.05
2018-12-11T00:05:14.143Z,99648.08
2018-12-11T00:05:50.384Z,99647.79
2018-12-11T00:06:26.596Z,99645.64
2018-12-11T00:07:02.333Z,99646.70
2018-12-11T00:07:38.039Z,99639.66
2018-12-11T00:08:13.812Z,99644.56
2018-12-11T00:08:49.579Z,99641.28
2018-12-11T00:09:25.255Z,99642.36
2018-12-11T00:10:01.274Z,99642.91
2018-12-11T00:10:37.201Z,99641.81
2018-12-11T00:11:12.967Z,99638.86
2018-12-11T00:11:48.835Z,99634.23
2018-12-11T00:12:24.584Z,99640.20
2018-12-11T00:13:00.408Z,99642.11
2018-12-11T00:13:36.469Z,99641.02
2018-12-11T00:14:12.636Z,99637.23
2018-12-11T00:14:48.370Z,99640.20
2018-12-11T00:15:24.116Z,99635.31
2018-12-11T00:15:59.893Z,99633.17
2018-12-11T00:16:35.902Z,99629.08
2018-12-11T00:17:11.764Z,99632.07
2018-12-11T00:17:47.394Z,99636.67
2018-12-11T00:18:22.996Z,99637.48
2018-12-11T00:18:58.717Z,99635.30
2018-12-11T00:19:34.547Z,99635.06
2018-12-11T00:20:10.363Z,99630.70
2018-12-11T00:20:46.093Z,99634.78
2018-12-11T00:21:21.887Z,99635.06
2018-12-11T00:21:57.599Z,99631.54
2018-12-11T00:22:33.675Z,99634.52
2018-12-11T00:23:09.467Z,99632.62
2018-12-11T00:23:45.253Z,99628.81
2018-12-11T00:24:21.490Z,99642.63
2018-12-11T00:24:57.200Z,99627.20
2018-12-11T00:25:33.050Z,99640.76
2018-12-11T00:26:08.602Z,99642.92
2018-12-11T00:26:44.239Z,99638.84
2018-12-11T00:27:20.028Z,99643.19
2018-12-11T00:27:56.026Z,99644.82
2018-12-11T00:28:31.855Z,99644.02
2018-12-11T00:29:07.962Z,99640.75
2018-12-11T00:29:43.806Z,99642.94
2018-12-11T00:30:19.657Z,99644.29
2018-12-11T00:30:55.395Z,99636.69
2018-12-11T00:31:31.194Z,99643.45
2018-12-11T00:32:07.200Z,99642.66
2018-12-11T00:32:43.918Z,99634.51
2018-12-11T00:33:19.551Z,99637.20
2018-12-11T00:33:55.311Z,99633.98
2018-12-11T00:34:31.006Z,99638.04
2018-12-11T00:35:07.361Z,99632.89
2018-12-11T00:35:42.963Z,99622.87
2018-12-11T00:36:18.799Z,99632.63
2018-12-11T00:36:54.803Z,99591.67
2018-12-11T00:37:30.701Z,99633.70
2018-12-11T00:38:06.629Z,99629.61
2018-12-11T00:38:42.608Z,99622.84
2018-12-11T00:39:18.395Z,99633.13
2018-12-11T00:39:54.168Z,99624.22
2018-12-11T00:40:29.947Z,99614.42
2018-12-11T00:41:06.243Z,99627.71
2018-12-11T00:41:42.002Z,99620.13
2018-12-11T00:42:17.754Z,99620.41
2018-12-11T00:42:53.577Z,99613.09
2018-12-11T00:43:29.292Z,99616.34
2018-12-11T00:44:04.930Z,99615.25
2018-12-11T00:44:40.820Z,99608.77
2018-12-11T00:45:16.678Z,99606.05
2018-12-11T00:45:52.275Z,99606.05
2018-12-11T00:46:28.158Z,99604.94
2018-12-11T00:47:04.216Z,99601.16
2018-12-11T00:47:40.277Z,99606.03
2018-12-11T00:48:16.038Z,99606.85
2018-12-11T00:48:51.984Z,99596.81
2018-12-11T00:49:28.047Z,99605.77
2018-12-11T00:50:03.678Z,99611.18
2018-12-11T00:50:39.330Z,99608.74
2018-12-11T00:51:15.297Z,99611.74
2018-12-11T00:51:51.181Z,99606.05
2018-12-11T00:52:26.954Z,99598.99
2018-12-11T00:53:02.775Z,99605.50
2018-12-11T00:53:38.547Z,99607.14
2018-12-11T00:54:14.750Z,99600.33
2018-12-11T00:54:50.513Z,99606.56
2018-12-11T00:55:26.322Z,99609.55
2018-12-11T00:56:02.052Z,99606.56
2018-12-11T00:56:38.157Z,99605.50
2018-12-11T00:57:13.922Z,99604.16
2018-12-11T00:57:49.617Z,99608.76
2018-12-11T00:58:25.818Z,99606.84
2018-12-11T00:59:01.455Z,99620.41
2018-12-11T00:59:37.170Z,99617.70
2018-12-11T01:00:12.959Z,99616.88
2018-12-11T01:00:48.875Z,99618.78
2018-12-11T01:01:24.752Z,99625.28
2018-12-11T01:02:00.492Z,99625.03
2018-12-11T01:02:36.479Z,99620.14
2018-12-11T01:03:12.053Z,99617.16
2018-12-11T01:03:47.774Z,99616.34
2018-12-11T01:04:23.905Z,99617.71
2018-12-11T01:04:59.744Z,99616.62
2018-12-11T01:05:35.597Z,99620.41
2018-12-11T01:06:11.438Z,99614.98
2018-12-11T01:06:47.065Z,99623.66
2018-12-11T01:07:22.949Z,99615.52
2018-12-11T01:07:58.641Z,99617.42
2018-12-11T01:08:34.298Z,99614.73
2018-12-11T01:09:09.966Z,99614.16
2018-12-11T01:09:45.599Z,99617.71
2018-12-11T01:10:21.465Z,99616.61
2018-12-11T01:10:57.309Z,99618.77
2018-12-11T01:11:32.974Z,99607.66
2018-12-11T01:12:08.651Z,99612.55
2018-12-11T01:12:44.454Z,99609.83
2018-12-11T01:13:20.228Z,99615.00
2018-12-11T01:13:56.111Z,99608.77
2018-12-11T01:14:32.003Z,99610.36
2018-12-11T01:15:09.101Z,99607.39
2018-12-11T01:15:45.006Z,99596.80
2018-12-11T01:16:20.638Z,99602.52
2018-12-11T01:16:56.198Z,99601.97
2018-12-11T01:17:32.152Z,99596.83
2018-12-11T01:18:07.960Z,99601.15
2018-12-11T01:18:43.688Z,99599.00
2018-12-11T01:19:19.356Z,99597.08
2018-12-11T01:19:55.137Z,99604.95
2018-12-11T01:20:30.872Z,99601.70
2018-12-11T01:21:06.707Z,99607.38
2018-12-11T01:21:42.631Z,99604.94
2018-12-11T01:22:18.340Z,99599.80
2018-12-11T01:22:54.459Z,99606.31
2018-12-11T01:23:30.301Z,99601.98
2018-12-11T01:24:06.578Z,99608.75
2018-12-11T01:24:42.570Z,99600.89
2018-12-11T01:25:18.306Z,99609.29
2018-12-11T01:25:54.214Z,99601.72
2018-12-11T01:26:29.749Z,99601.17
2018-12-11T01:27:05.710Z,99601.42
2018-12-11T01:27:41.427Z,99597.37
2018-12-11T01:28:17.187Z,99599.82
2018-12-11T01:28:52.798Z,99597.91
2018-12-11T01:29:28.995Z,99597.89
2018-12-11T01:30:04.781Z,99597.91
2018-12-11T01:30:40.463Z,99604.13
2018-12-11T01:31:16.919Z,99594.11
2018-12-11T01:31:53.372Z,99594.39
2018-12-11T01:32:29.223Z,99584.62
2018-12-11T01:33:04.955Z,99585.70
2018-12-11T01:33:40.769Z,99592.47
2018-12-11T01:34:16.898Z,99594.92
2018-12-11T01:34:52.709Z,99594.39
2018-12-11T01:35:28.750Z,99595.22
2018-12-11T01:36:04.854Z,99601.42
2018-12-11T01:36:40.548Z,99598.19
2018-12-11T01:37:16.240Z,99588.97
2018-12-11T01:37:51.963Z,99595.20
2018-12-11T01:38:27.906Z,99594.38
2018-12-11T01:39:05.477Z,99597.89
2018-12-11T01:39:41.421Z,99597.89
2018-12-11T01:40:17.494Z,99590.84
2018-12-11T01:40:53.118Z,99589.50
2018-12-11T01:41:28.792Z,99588.97
2018-12-11T01:42:04.714Z,99590.06
2018-12-11T01:42:40.700Z,99582.99
2018-12-11T01:43:16.529Z,99588.70
2018-12-11T01:43:52.617Z,99580.58
2018-12-11T01:44:28.661Z,99578.39
2018-12-11T01:45:04.367Z,99569.71
2018-12-11T01:45:40.184Z,99575.69
2018-12-11T01:46:16.081Z,99578.38
2018-12-11T01:46:51.910Z,99571.59
2018-12-11T01:47:27.605Z,99566.97
2018-12-11T01:48:03.361Z,99568.34
2018-12-11T01:48:39.543Z,99573.50
2018-12-11T01:49:15.257Z,99571.62
2018-12-11T01:49:51.520Z,99574.59
2018-12-11T01:50:27.425Z,99571.33
2018-12-11T01:51:02.895Z,99568.36
2018-12-11T01:51:38.985Z,99568.89
2018-12-11T01:52:14.738Z,99568.59
2018-12-11T01:52:50.629Z,99572.17
2018-12-11T01:53:26.899Z,99573.77
2018-12-11T01:54:02.683Z,99568.89
2018-12-11T01:54:38.427Z,99569.44
2018-12-11T01:55:14.028Z,99568.34
2018-12-11T01:55:49.712Z,99566.44
2018-12-11T01:56:25.315Z,99564.80
2018-12-11T01:57:01.063Z,99564.27
2018-12-11T01:57:36.998Z,99563.76
2018-12-11T01:58:12.675Z,99572.70
2018-12-11T01:58:48.647Z,99565.66
2018-12-11T01:59:24.607Z,99569.18
2018-12-11T02:00:01.114Z,99571.89
2018-12-11T02:00:36.834Z,99575.67
2018-12-11T02:01:12.730Z,99572.41
2018-12-11T02:01:48.941Z,99572.95
2018-12-11T02:02:24.654Z,99569.69
2018-12-11T02:03:00.447Z,99572.14
2018-12-11T02:03:36.554Z,99570.49
2018-12-11T02:04:12.638Z,99578.08
2018-12-11T02:04:48.609Z,99568.63
2018-12-11T02:05:24.200Z,99569.14
2018-12-11T02:05:59.952Z,99569.15
2018-12-11T02:06:35.808Z,99566.45
2018-12-11T02:07:11.661Z,99569.70
2018-12-11T02:07:47.661Z,99572.13
2018-12-11T02:08:24.200Z,99564.81
2018-12-11T02:09:00.052Z,99566.43
2018-12-11T02:09:35.839Z,99566.96
2018-12-11T02:10:11.733Z,99566.17
2018-12-11T02:10:47.434Z,99563.17
2018-12-11T02:11:23.246Z,99572.70
2018-12-11T02:11:58.908Z,99564.27
2018-12-11T02:12:34.700Z,99564.27
2018-12-11T02:13:11.417Z,99567.23
2018-12-11T02:13:47.140Z,99558.86
2018-12-11T02:14:22.736Z,99564.82
2018-12-11T02:14:58.476Z,99555.34
2018-12-11T02:15:37.289Z,99560.75
2018-12-11T02:16:13.163Z,99567.80
2018-12-11T02:16:48.878Z,99558.30
2018-12-11T02:17:24.723Z,99571.31
2018-12-11T02:18:00.337Z,99564.82
2018-12-11T02:18:36.140Z,99566.45
2018-12-11T02:19:12.078Z,99561.81
2018-12-11T02:19:48.464Z,99562.11
2018-12-11T02:20:24.301Z,99566.16
2018-12-11T02:20:59.939Z,99566.97
2018-12-11T02:21:41.906Z,99561.81
2018-12-11T02:22:13.666Z,99556.69
2018-12-11T02:22:49.346Z,99561.30
2018-12-11T02:23:25.175Z,99561.03
2018-12-11T02:24:01.332Z,99565.63
2018-12-11T02:24:37.236Z,99555.33
2018-12-11T02:25:13.207Z,99553.17
2018-12-11T02:25:49.088Z,99555.88
2018-12-11T02:26:24.811Z,99565.89
2018-12-11T02:27:00.675Z,99555.86
2018-12-11T02:27:36.379Z,99562.67
2018-12-11T02:28:12.186Z,99563.76
2018-12-11T02:28:47.861Z,99565.66
2018-12-11T02:29:23.792Z,99557.25
2018-12-11T02:30:00.022Z,99564.83
2018-12-11T02:30:35.620Z,99568.91
2018-12-11T02:31:11.558Z,99565.38
2018-12-11T02:31:47.581Z,99560.76
2018-12-11T02:32:23.436Z,99560.24
2018-12-11T02:32:59.215Z,99561.58
2018-12-11T02:33:35.206Z,99562.95
2018-12-11T02:34:10.843Z,99559.13
2018-12-11T02:34:46.692Z,99561.31
2018-12-11T02:35:22.367Z,99563.20
2018-12-11T02:35:58.503Z,99556.70
2018-12-11T02:36:34.249Z,99562.66
2018-12-11T02:37:10.406Z,99556.12
2018-12-11T02:37:46.175Z,99558.61
2018-12-11T02:38:22.165Z,99559.95
2018-12-11T02:38:58.029Z,99553.17
2018-12-11T02:39:33.571Z,99555.61
2018-12-11T02:40:09.200Z,99555.08
2018-12-11T02:40:45.123Z,99542.59
2018-12-11T02:41:20.793Z,99553.70
2018-12-11T02:41:56.773Z,99552.34
2018-12-11T02:42:32.518Z,99552.36
2018-12-11T02:43:08.122Z,99548.04
2018-12-11T02:43:43.971Z,99546.41
2018-12-11T02:44:19.711Z,99548.58
2018-12-11T02:44:55.453Z,99551.01
2018-12-11T02:45:31.191Z,99547.77
2018-12-11T02:46:07.232Z,99554.77
2018-12-11T02:46:43.194Z,99551.54
2018-12-11T02:47:19.092Z,99546.11
2018-12-11T02:47:54.796Z,99549.88
2018-12-11T02:48:30.439Z,99547.72
2018-12-11T02:49:06.304Z,99550.98
2018-12-11T02:49:42.430Z,99546.91
2018-12-11T02:50:18.413Z,99547.45
2018-12-11T02:50:54.326Z,99552.86
2018-12-11T02:51:30.019Z,99547.18
2018-12-11T02:52:06.175Z,99552.34
2018-12-11T02:52:41.942Z,99546.91
2018-12-11T02:53:17.655Z,99545.03
2018-12-11T02:53:53.837Z,99546.13
2018-12-11T02:54:29.483Z,99549.66
2018-12-11T02:55:05.888Z,99549.41
2018-12-11T02:55:41.585Z,99550.98
2018-12-11T02:56:17.322Z,99553.72
2018-12-11T02:56:53.352Z,99545.31
2018-12-11T02:57:28.960Z,99537.98
2018-12-11T02:58:04.810Z,99544.78
2018-12-11T02:58:40.667Z,99544.23
2018-12-11T02:59:16.382Z,99540.97
2018-12-11T02:59:52.175Z,99551.28
2018-12-11T03:00:28.299Z,99551.83
2018-12-11T03:01:04.283Z,99550.46
2018-12-11T03:01:40.126Z,99546.94
2018-12-11T03:02:15.803Z,99543.70
2018-12-11T03:02:51.796Z,99558.28
2018-12-11T03:03:27.873Z,99552.34
2018-12-11T03:04:04.040Z,99546.64
2018-12-11T03:04:39.679Z,99547.45
2018-12-11T03:05:15.554Z,99555.33
2018-12-11T03:05:51.687Z,99552.10
2018-12-11T03:06:27.658Z,99555.88
2018-12-11T03:07:03.239Z,99552.91
2018-12-11T03:07:39.217Z,99554.27
2018-12-11T03:08:15.112Z,99551.56
2018-12-11T03:08:51.161Z,99553.45
2018-12-11T03:09:26.819Z,99553.46
2018-12-11T03:10:02.726Z,99554.52
2018-12-11T03:10:38.328Z,99555.90
2018-12-11T03:11:14.659Z,99553.73
2018-12-11T03:11:50.435Z,99558.59
2018-12-11T03:12:26.181Z,99551.81
2018-12-11T03:13:01.977Z,99558.05
2018-12-11T03:13:37.777Z,99558.87
2018-12-11T03:14:13.720Z,99549.40
2018-12-11T03:14:49.539Z,99555.06
2018-12-11T03:15:25.590Z,99555.35
2018-12-11T03:16:01.281Z,99552.64
2018-12-11T03:16:37.041Z,99561.59
2018-12-11T03:17:12.981Z,99560.22
2018-12-11T03:17:48.844Z,99559.95
2018-12-11T03:18:24.461Z,99559.40
2018-12-11T03:19:00.706Z,99555.36
2018-12-11T03:19:36.549Z,99554.55
2018-12-11T03:20:12.473Z,99558.87
2018-12-11T03:20:48.307Z,99559.97
2018-12-11T03:21:24.353Z,99556.17
2018-12-11T03:22:00.368Z,99563.50
2018-12-11T03:22:36.917Z,99557.52
2018-12-11T03:23:12.713Z,99555.07
2018-12-11T03:23:48.297Z,99554.50
2018-12-11T03:24:24.044Z,99557.48
2018-12-11T03:24:59.853Z,99551.55
2018-12-11T03:25:36.669Z,99557.78
2018-12-11T03:26:12.530Z,99556.17
2018-12-11T03:26:48.192Z,99555.34
2018-12-11T03:27:24.132Z,99553.20
2018-12-11T03:27:59.915Z,99547.48
2018-12-11T03:28:38.941Z,99553.45
2018-12-11T03:29:14.739Z,99553.45
2018-12-11T03:29:50.308Z,99549.94
2018-12-11T03:30:25.993Z,99551.55
2018-12-11T03:31:01.906Z,99544.78
2018-12-11T03:31:37.836Z,99545.88
2018-12-11T03:32:13.470Z,99546.69
2018-12-11T03:32:49.150Z,99545.33
2018-12-11T03:33:25.089Z,99550.48
2018-12-11T03:34:01.173Z,99543.95
2018-12-11T03:34:37.154Z,99544.78
2018-12-11T03:35:12.885Z,99545.60
2018-12-11T03:35:48.839Z,99541.27
2018-12-11T03:36:24.713Z,99542.06
2018-12-11T03:37:01.291Z,99540.98
2018-12-11T03:37:37.007Z,99546.11
2018-12-11T03:38:12.679Z,99544.48
2018-12-11T03:38:48.248Z,99541.48
2018-12-11T03:39:24.134Z,99540.95
2018-12-11T03:40:00.183Z,99543.11
2018-12-11T03:40:35.869Z,99536.34
2018-12-11T03:41:11.708Z,99533.92
2018-12-11T03:41:47.605Z,99533.90
2018-12-11T03:42:23.500Z,99529.57
2018-12-11T03:42:59.205Z,99532.83
2018-12-11T03:43:35.324Z,99528.50
2018-12-11T03:44:11.405Z,99533.36
2018-12-11T03:44:47.147Z,99528.49
2018-12-11T03:45:23.081Z,99527.39
2018-12-11T03:45:58.896Z,99529.84
2018-12-11T03:46:34.792Z,99531.73
2018-12-11T03:47:10.702Z,99536.87
2018-12-11T03:47:47.063Z,99528.50
2018-12-11T03:48:23.001Z,99528.22
2018-12-11T03:48:59.671Z,99534.17
2018-12-11T03:49:35.226Z,99531.19
2018-12-11T03:50:11.131Z,99527.42
2018-12-11T03:50:46.765Z,99527.95
2018-12-11T03:51:22.654Z,99519.25
2018-12-11T03:51:58.820Z,99518.45
2018-12-11T03:52:35.612Z,99521.70
2018-12-11T03:53:11.538Z,99523.86
2018-12-11T03:53:47.399Z,99518.72
2018-12-11T03:54:22.955Z,99512.76
2018-12-11T03:54:59.024Z,99517.09
2018-12-11T03:55:34.707Z,99511.96
2018-12-11T03:56:10.757Z,99517.38
2018-12-11T03:56:46.519Z,99515.77
2018-12-11T03:57:22.601Z,99506.80
2018-12-11T03:57:58.509Z,99506.53
2018-12-11T03:58:34.327Z,99504.66
2018-12-11T03:59:10.022Z,99509.78
2018-12-11T03:59:45.892Z,99507.88
2018-12-11T04:00:21.833Z,99505.71
2018-12-11T04:00:57.411Z,99506.78
2018-12-11T04:01:33.092Z,99499.17
2018-12-11T04:02:09.026Z,99500.82
2018-12-11T04:02:45.005Z,99498.91
2018-12-11T04:03:20.984Z,99491.28
2018-12-11T04:03:56.704Z,99500.52
2018-12-11T04:04:32.404Z,99496.47
2018-12-11T04:05:08.502Z,99508.13
2018-12-11T04:05:44.212Z,99501.89
2018-12-11T04:06:20.723Z,99496.22
2018-12-11T04:06:56.493Z,99499.70
2018-12-11T04:07:32.211Z,99504.05
2018-12-11T04:08:07.992Z,99500.54
2018-12-11T04:08:43.816Z,99501.34
2018-12-11T04:09:19.409Z,99497.83
2018-12-11T04:09:55.136Z,99501.31
2018-12-11T04:10:30.732Z,99496.14
2018-12-11T04:11:06.711Z,99496.14
2018-12-11T04:11:42.339Z,99499.91
2018-12-11T04:12:18.304Z,99502.88
2018-12-11T04:12:54.239Z,99499.09
2018-12-11T04:13:30.151Z,99499.65
2018-12-11T04:14:07.057Z,99502.38
2018-12-11T04:14:42.955Z,99504.53
2018-12-11T04:15:18.791Z,99509.92
2018-12-11T04:15:54.699Z,99505.89
2018-12-11T04:16:30.749Z,99508.30
2018-12-11T04:17:06.488Z,99501.80
2018-12-11T04:17:42.432Z,99505.06
2018-12-11T04:18:18.179Z,99499.34
2018-12-11T04:18:53.995Z,99508.81
2018-12-11T04:19:29.969Z,99507.75
2018-12-11T04:20:06.665Z,99505.06
2018-12-11T04:20:42.504Z,99498.53
2018-12-11T04:21:18.855Z,99506.66
2018-12-11T04:21:54.566Z,99502.89
2018-12-11T04:22:30.119Z,99499.91
2018-12-11T04:23:06.183Z,99496.95
2018-12-11T04:23:41.952Z,99498.31
2018-12-11T04:24:18.086Z,99501.53
2018-12-11T04:24:53.490Z,99500.78
2018-12-11T04:25:29.055Z,99500.45
2018-12-11T04:26:05.155Z,99490.45
2018-12-11T04:26:40.989Z,99482.59
2018-12-11T04:27:16.882Z,99495.66
2018-12-11T04:27:52.824Z,99495.93
2018-12-11T04:28:28.842Z,99494.84
2018-12-11T04:29:04.748Z,99499.47
2018-12-11T04:29:40.990Z,99496.23
2018-12-11T04:30:16.682Z,99497.05
2018-12-11T04:30:53.251Z,99487.30
2018-12-11T04:31:29.229Z,99497.87
2018-12-11T04:32:04.872Z,99498.96
2018-12-11T04:32:41.338Z,99497.87
2018-12-11T04:33:17.082Z,99500.00
2018-12-11T04:33:52.816Z,99494.58
2018-12-11T04:34:28.819Z,99493.45
2018-12-11T04:35:05.058Z,99498.89
2018-12-11T04:35:40.873Z,99493.23
2018-12-11T04:36:16.505Z,99486.19
2018-12-11T04:36:52.190Z,99492.70
2018-12-11T04:37:27.829Z,99494.61
2018-12-11T04:38:03.709Z,99498.14
2018-12-11T04:38:39.495Z,99498.94
2018-12-11T04:39:15.093Z,99500.03
2018-12-11T04:39:50.883Z,99502.20
2018-12-11T04:40:26.616Z,99494.09
2018-12-11T04:41:02.440Z,99501.41
2018-12-11T04:41:38.152Z,99498.69
2018-12-11T04:42:13.901Z,99505.70
2018-12-11T04:42:49.583Z,99504.63
2018-12-11T04:43:25.542Z,99497.61
2018-12-11T04:44:01.513Z,99500.84
2018-12-11T04:44:37.262Z,99507.63
2018-12-11T04:45:13.131Z,99505.47
2018-12-11T04:45:48.771Z,99499.23
2018-12-11T04:46:24.549Z,99503.82
2018-12-11T04:47:00.319Z,99502.20
2018-12-11T04:47:36.117Z,99499.22
2018-12-11T04:48:12.009Z,99505.18
2018-12-11T04:48:47.726Z,99508.45
2018-12-11T04:49:24.256Z,99506.83
2018-12-11T04:49:59.973Z,99504.12
2018-12-11T04:50:35.969Z,99504.65
2018-12-11T04:51:12.622Z,99500.58
2018-12-11T04:51:48.363Z,99500.05
2018-12-11T04:52:24.242Z,99500.58
2018-12-11T04:53:00.154Z,99502.47
2018-12-11T04:53:36.249Z,99503.83
2018-12-11T04:54:12.532Z,99498.70
2018-12-11T04:54:48.222Z,99494.34
2018-12-11T04:55:23.998Z,99498.13
2018-12-11T04:55:59.785Z,99496.78
2018-12-11T04:56:35.580Z,99504.64
2018-12-11T04:57:11.402Z,99499.21
2018-12-11T04:57:47.211Z,99500.30
2018-12-11T04:58:22.956Z,99501.92
2018-12-11T04:58:58.664Z,99497.33
2018-12-11T04:59:34.356Z,99502.76
2018-12-11T05:00:10.350Z,99500.33
2018-12-11T05:00:46.269Z,99491.92
2018-12-11T05:01:22.313Z,99497.34
2018-12-11T05:01:58.141Z,99500.05
2018-12-11T05:02:33.982Z,99491.92
2018-12-11T05:03:10.312Z,99494.62
2018-12-11T05:03:46.021Z,99492.44
2018-12-11T05:04:21.690Z,99498.67
2018-12-11T05:04:57.499Z,99489.47
2018-12-11T05:05:33.325Z,99495.16
2018-12-11T05:06:09.110Z,99498.39
2018-12-11T05:06:45.770Z,99501.11
2018-12-11T05:07:21.728Z,99498.41
2018-12-11T05:07:57.461Z,99497.59
2018-12-11T05:08:33.508Z,99500.59
2018-12-11T05:09:09.431Z,99494.88
2018-12-11T05:09:45.356Z,99490.00
2018-12-11T05:10:20.989Z,99496.20
2018-12-11T05:10:57.521Z,99493.52
2018-12-11T05:11:33.109Z,99498.34
2018-12-11T05:12:08.796Z,99491.84
2018-12-11T05:12:44.461Z,99494.78
2018-12-11T05:13:20.288Z,99493.95
2018-12-11T05:13:56.023Z,99493.15
2018-12-11T05:14:32.032Z,99492.69
2018-12-11T05:15:08.400Z,99492.13
2018-12-11T05:15:44.046Z,99496.39
2018-12-11T05:16:19.867Z,99494.77
2018-12-11T05:16:55.615Z,99493.17
2018-12-11T05:17:31.344Z,99491.33
2018-12-11T05:18:06.942Z,99492.16
2018-12-11T05:18:42.685Z,99486.46
2018-12-11T05:19:18.385Z,99487.55
2018-12-11T05:19:54.240Z,99493.48
2018-12-11T05:20:30.234Z,99481.30
2018-12-11T05:21:06.174Z,99492.69
2018-12-11T05:21:41.742Z,99486.40
2018-12-11T05:22:17.684Z,99486.94
2018-12-11T05:22:53.139Z,99478.05
2018-12-11T05:23:29.120Z,99485.94
2018-12-11T05:24:04.829Z,99482.64
2018-12-11T05:24:40.800Z,99480.22
2018-12-11T05:25:17.087Z,99482.92
2018-12-11T05:25:53.061Z,99482.04
2018-12-11T05:26:29.213Z,99482.02
2018-12-11T05:27:05.182Z,99476.06
2018-12-11T05:27:40.932Z,99472.84
2018-12-11T05:28:17.176Z,99478.81
2018-12-11T05:28:53.110Z,99473.11
2018-12-11T05:29:28.737Z,99479.83
2018-12-11T05:30:05.100Z,99481.17
2018-12-11T05:30:42.255Z,99482.55
2018-12-11T05:31:18.028Z,99478.22
2018-12-11T05:31:54.022Z,99471.98
2018-12-11T05:32:29.812Z,99480.09
2018-12-11T05:33:06.503Z,99474.14
2018-12-11T05:33:42.348Z,99475.80
2018-12-11T05:34:18.197Z,99473.98
2018-12-11T05:34:54.214Z,99476.39
2018-12-11T05:35:30.002Z,99469.58
2018-12-11T05:36:06.338Z,99473.65
2018-12-11T05:36:42.071Z,99473.11
2018-12-11T05:37:17.943Z,99476.08
2018-12-11T05:37:53.552Z,99473.89
2018-12-11T05:38:29.145Z,99471.75
2018-12-11T05:39:05.951Z,99476.09
2018-12-11T05:39:41.763Z,99479.89
2018-12-11T05:40:17.807Z,99475.56
2018-12-11T05:40:53.670Z,99477.69
2018-12-11T05:41:29.964Z,99469.30
2018-12-11T05:42:05.663Z,99467.41
2018-12-11T05:42:41.361Z,99469.53
2018-12-11T05:43:17.390Z,99477.13
2018-12-11T05:43:52.952Z,99474.14
2018-12-11T05:44:29.264Z,99473.83
2018-12-11T05:45:05.230Z,99470.60
2018-12-11T05:45:41.095Z,99473.83
2018-12-11T05:46:16.758Z,99476.55
2018-12-11T05:46:52.556Z,99476.56
2018-12-11T05:47:28.324Z,99477.08
2018-12-11T05:48:04.259Z,99473.81
2018-12-11T05:48:40.107Z,99477.34
2018-12-11T05:49:16.674Z,99474.08
2018-12-11T05:49:52.418Z,99470.29
2018-12-11T05:50:28.030Z,99474.64
2018-12-11T05:51:10.439Z,99476.80
2018-12-11T05:51:46.323Z,99474.08
2018-12-11T05:52:21.955Z,99475.97
2018-12-11T05:52:57.951Z,99479.20
2018-12-11T05:53:33.821Z,99468.41
2018-12-11T05:54:09.493Z,99475.70
2018-12-11T05:54:45.161Z,99476.77
2018-12-11T05:55:21.290Z,99473.52
2018-12-11T05:55:57.045Z,99471.09
2018-12-11T05:56:32.693Z,99464.89
2018-12-11T05:57:08.415Z,99463.77
2018-12-11T05:57:44.133Z,99455.95
2018-12-11T05:58:20.269Z,99466.52
2018-12-11T05:58:55.937Z,99470.05
2018-12-11T05:59:31.671Z,99470.31
2018-12-11T06:00:10.201Z,99465.20
2018-12-11T06:00:45.966Z,99466.30
2018-12-11T06:01:22.165Z,99467.11
2018-12-11T06:01:58.142Z,99464.36
2018-12-11T06:02:33.854Z,99470.05
2018-12-11T06:03:09.949Z,99468.20
2018-12-11T06:03:45.760Z,99465.73
2018-12-11T06:04:21.387Z,99468.73
2018-12-11T06:04:56.925Z,99463.61
2018-12-11T06:05:32.698Z,99458.77
2018-12-11T06:06:08.706Z,99461.20
2018-12-11T06:06:44.532Z,99458.48
2018-12-11T06:07:20.557Z,99459.59
2018-12-11T06:07:56.164Z,99462.08
2018-12-11T06:08:31.809Z,99459.94
2018-12-11T06:09:10.109Z,99458.83
2018-12-11T06:09:45.936Z,99455.59
2018-12-11T06:10:21.566Z,99459.94
2018-12-11T06:10:57.628Z,99462.94
2018-12-11T06:11:33.290Z,99459.67
2018-12-11T06:12:08.732Z,99464.28
2018-12-11T06:12:44.417Z,99457.23
2018-12-11T06:13:20.148Z,99456.15
2018-12-11T06:13:55.750Z,99458.03
2018-12-11T06:14:31.453Z,99460.23
2018-12-11T06:15:07.408Z,99455.89
2018-12-11T06:15:43.535Z,99452.08
2018-12-11T06:16:19.400Z,99459.69
2018-12-11T06:16:55.027Z,99458.59
2018-12-11T06:17:31.298Z,99458.06
2018-12-11T06:18:06.923Z,99459.69
2018-12-11T06:18:42.565Z,99456.42
2018-12-11T06:19:18.433Z,99451.56
2018-12-11T06:19:54.611Z,99455.62
2018-12-11T06:20:30.430Z,99449.12
2018-12-11T06:21:06.480Z,99451.84
2018-12-11T06:21:41.930Z,99448.83
2018-12-11T06:22:17.816Z,99446.14
2018-12-11T06:22:53.642Z,99453.98
2018-12-11T06:23:29.686Z,99449.37
2018-12-11T06:24:05.359Z,99448.02
2018-12-11T06:24:40.991Z,99448.85
2018-12-11T06:25:16.617Z,99448.30
2018-12-11T06:25:52.377Z,99449.39
2018-12-11T06:26:28.183Z,99440.72
2018-12-11T06:27:04.091Z,99448.56
2018-12-11T06:27:39.657Z,99442.61
2018-12-11T06:28:15.439Z,99440.45
2018-12-11T06:28:51.566Z,99440.99
2018-12-11T06:29:27.407Z,99437.45
2018-12-11T06:30:03.213Z,99443.16
2018-12-11T06:30:38.946Z,99446.14
2018-12-11T06:31:14.551Z,99454.52
2018-12-11T06:31:50.130Z,99448.55
2018-12-11T06:32:25.783Z,99446.39
2018-12-11T06:33:01.592Z,99441.79
2018-12-11T06:33:37.516Z,99444.23
2018-12-11T06:34:13.518Z,99445.33
2018-12-11T06:34:49.658Z,99440.70
2018-12-11T06:35:25.188Z,99439.36
2018-12-11T06:36:00.921Z,99441.80
2018-12-11T06:36:37.554Z,99446.11
2018-12-11T06:37:13.377Z,99447.20
2018-12-11T06:37:49.275Z,99442.06
2018-12-11T06:38:24.829Z,99448.03
2018-12-11T06:39:00.439Z,99441.52
2018-12-11T06:39:36.200Z,99443.68
2018-12-11T06:40:11.983Z,99433.41
2018-12-11T06:40:47.795Z,99440.16
2018-12-11T06:41:23.822Z,99437.73
2018-12-11T06:41:59.708Z,99433.06
2018-12-11T06:42:35.335Z,99434.95
2018-12-11T06:43:11.111Z,99431.43
2018-12-11T06:43:47.524Z,99437.69
2018-12-11T06:44:23.564Z,99438.79
2018-12-11T06:44:59.333Z,99437.98
2018-12-11T06:45:35.193Z,99432.03
2018-12-11T06:46:10.886Z,99440.42
2018-12-11T06:46:46.849Z,99436.91
2018-12-11T06:47:22.356Z,99426.32
2018-12-11T06:47:58.110Z,99438.55
2018-12-11T06:48:33.817Z,99433.95
2018-12-11T06:49:09.617Z,99430.14
2018-12-11T06:49:45.719Z,99428.75
2018-12-11T06:50:21.553Z,99426.02
2018-12-11T06:50:57.377Z,99426.85
2018-12-11T06:51:33.159Z,99428.78
2018-12-11T06:52:09.009Z,99424.73
2018-12-11T06:52:44.601Z,99425.80
2018-12-11T06:53:20.322Z,99423.66
2018-12-11T06:53:55.964Z,99426.62
2018-12-11T06:54:32.199Z,99425.81
2018-12-11T06:55:07.932Z,99427.98
2018-12-11T06:55:43.788Z,99430.40
2018-12-11T06:56:19.406Z,99423.08
2018-12-11T06:56:55.198Z,99426.29
2018-12-11T06:57:30.785Z,99422.79
2018-12-11T06:58:06.563Z,99425.75
2018-12-11T06:58:42.380Z,99422.51
2018-12-11T06:59:18.171Z,99424.95
2018-12-11T06:59:53.972Z,99433.04
2018-12-11T07:00:29.877Z,99427.63
2018-12-11T07:01:05.744Z,99436.03
2018-12-11T07:01:41.584Z,99427.63